createdAt,value
2019-05-18T00:00:02.966Z,98
2019-05-18T00:01:02.562Z,99.8
2019-05-18T00:02:02.827Z,99.1
2019-05-18T00:03:02.543Z,100.3
2019-05-18T00:04:03.222Z,99.8
2019-05-18T00:05:03.295Z,98.9
2019-05-18T00:06:03.219Z,99.4
2019-05-18T00:07:02.992Z,100.1
2019-05-18T00:08:03.076Z,101
2019-05-18T00:09:01.528Z,101
2019-05-18T00:10:03.500Z,100.3
2019-05-18T00:11:03.293Z,101
2019-05-18T00:12:03.161Z,102.2
2019-05-18T00:13:03.611Z,102.9
2019-05-18T00:14:02.947Z,103.6
2019-05-18T00:15:02.696Z,104.3
2019-05-18T00:16:02.611Z,104
2019-05-18T00:17:03.506Z,103.8
2019-05-18T00:18:02.875Z,104.7
2019-05-18T00:19:03.218Z,104.3
2019-05-18T00:20:02.853Z,105
2019-05-18T00:21:03.109Z,104.7
2019-05-18T00:22:02.817Z,103.6
2019-05-18T00:23:03.169Z,102.9
2019-05-18T00:24:03.070Z,104.3
2019-05-18T00:25:03.528Z,105.2
2019-05-18T00:26:02.860Z,104.5
2019-05-18T00:27:03.074Z,104
2019-05-18T00:28:02.826Z,105.7
2019-05-18T00:29:03.056Z,105.2
2019-05-18T00:30:02.835Z,104
2019-05-18T00:31:03.250Z,103.8
2019-05-18T00:32:02.771Z,103.1
2019-05-18T00:33:03.325Z,101.7
2019-05-18T00:34:02.761Z,100.5
2019-05-18T00:35:03.437Z,100.3
2019-05-18T00:36:03.303Z,98.2
2019-05-18T00:37:02.950Z,98.4
2019-05-18T00:38:03.251Z,98
2019-05-18T00:39:03.009Z,97
2019-05-18T00:40:03.551Z,96.1
2019-05-18T00:41:02.679Z,96.1
2019-05-18T00:42:03.506Z,96.6
2019-05-18T00:43:03.189Z,97.7
2019-05-18T00:44:03.549Z,97.3
2019-05-18T00:45:02.967Z,98.2
2019-05-18T00:46:03.194Z,98.7
2019-05-18T00:47:02.849Z,98.4
2019-05-18T00:48:03.299Z,97.5
2019-05-18T00:49:03.218Z,97
2019-05-18T00:50:03.257Z,96.6
2019-05-18T00:51:02.846Z,96.3
2019-05-18T00:52:02.498Z,96.6
2019-05-18T00:53:03.079Z,95.2
2019-05-18T00:54:02.478Z,96.3
2019-05-18T00:55:03.102Z,96.3
2019-05-18T00:56:03.430Z,96.8
2019-05-18T00:57:02.727Z,96.8
2019-05-18T00:58:03.195Z,97
2019-05-18T00:59:02.569Z,97.3
2019-05-18T01:00:03.489Z,97.3
2019-05-18T01:01:03.351Z,97
2019-05-18T01:02:03.106Z,97.5
2019-05-18T01:03:03.144Z,97.5
2019-05-18T01:04:02.601Z,97.5
2019-05-18T01:05:03.017Z,98
2019-05-18T01:06:03.330Z,96.8
2019-05-18T01:07:02.726Z,96.8
2019-05-18T01:08:03.036Z,96.6
2019-05-18T01:09:02.797Z,96.1
2019-05-18T01:10:03.164Z,96.6
2019-05-18T01:11:03.435Z,95.6
2019-05-18T01:12:02.962Z,95.9
2019-05-18T01:13:03.512Z,96.6
2019-05-18T01:14:02.892Z,96.3
2019-05-18T01:15:03.299Z,96.8
2019-05-18T01:16:02.709Z,96.1
2019-05-18T01:17:03.459Z,96.6
2019-05-18T01:18:02.774Z,95.4
2019-05-18T01:19:03.013Z,94.7
2019-05-18T01:20:02.854Z,94
2019-05-18T01:21:02.952Z,94
2019-05-18T01:22:03.234Z,94.5
2019-05-18T01:23:02.817Z,95.2
2019-05-18T01:24:03.448Z,93.8
2019-05-18T01:25:03.056Z,92.4
2019-05-18T01:26:02.823Z,92.4
2019-05-18T01:27:03.129Z,94
2019-05-18T01:28:02.912Z,92.1
2019-05-18T01:29:02.928Z,91.7
2019-05-18T01:30:03.553Z,93.3
2019-05-18T01:31:02.795Z,94
2019-05-18T01:32:02.617Z,94.9
2019-05-18T01:33:03.382Z,96.1
2019-05-18T01:34:02.610Z,96.6
2019-05-18T01:35:02.919Z,97
2019-05-18T01:36:03.307Z,99.4
2019-05-18T01:37:02.358Z,98.9
2019-05-18T01:38:03.197Z,98.4
2019-05-18T01:39:03.139Z,99.4
2019-05-18T01:40:03.392Z,99.1
2019-05-18T01:41:02.602Z,98.7
2019-05-18T01:42:02.722Z,99.6
2019-05-18T01:43:03.486Z,98
2019-05-18T01:44:03.171Z,96.3
2019-05-18T01:45:17.891Z,95.2
2019-05-18T01:47:02.775Z,94.9
2019-05-18T01:48:14.917Z,94.9
2019-05-18T01:50:03.311Z,95.9
2019-05-18T01:51:03.330Z,97
2019-05-18T01:52:02.521Z,98.2
2019-05-18T01:53:03.363Z,98.4
2019-05-18T01:54:02.704Z,97.5
2019-05-18T01:55:03.129Z,97.5
2019-05-18T01:56:02.368Z,97.5
2019-05-18T01:57:02.958Z,97.5
2019-05-18T01:58:03.479Z,96.6
2019-05-18T01:59:03.151Z,97.3
2019-05-18T02:00:03.172Z,97.7
2019-05-18T02:01:03.041Z,97.5
2019-05-18T02:02:03.303Z,97.3
2019-05-18T02:03:02.739Z,96.6
2019-05-18T02:04:03.307Z,96.8
2019-05-18T02:05:03.078Z,97
2019-05-18T02:06:03.026Z,98.7
2019-05-18T02:07:03.625Z,98.7
2019-05-18T02:08:02.628Z,98.4
2019-05-18T02:09:03.289Z,98.9
2019-05-18T02:10:03.161Z,99.6
2019-05-18T02:11:03.162Z,99.6
2019-05-18T02:12:02.984Z,99.4
2019-05-18T02:13:03.354Z,98.4
2019-05-18T02:14:02.838Z,98.9
2019-05-18T02:15:03.345Z,98.7
2019-05-18T02:16:02.488Z,99.6
2019-05-18T02:17:03.288Z,100.1
2019-05-18T02:18:02.772Z,99.1
2019-05-18T02:19:03.249Z,99.4
2019-05-18T02:20:02.930Z,99.6
2019-05-18T02:21:03.096Z,99.1
2019-05-18T02:22:02.551Z,100.3
2019-05-18T02:23:03.166Z,99.6
2019-05-18T02:24:02.704Z,101.2
2019-05-18T02:25:03.403Z,100.8
2019-05-18T02:26:02.883Z,100.3
2019-05-18T02:27:03.443Z,99.4
2019-05-18T02:28:02.452Z,100.8
2019-05-18T02:29:03.147Z,100.8
2019-05-18T02:30:02.828Z,100.1
2019-05-18T02:31:03.420Z,98.7
2019-05-18T02:32:02.755Z,98.7
2019-05-18T02:33:03.138Z,98
2019-05-18T02:34:02.917Z,98.4
2019-05-18T02:35:03.297Z,98.4
2019-05-18T02:36:03.302Z,98
2019-05-18T02:37:03.668Z,99.6
2019-05-18T02:38:02.414Z,101.2
2019-05-18T02:39:03.065Z,100.3
2019-05-18T02:40:02.603Z,100.3
2019-05-18T02:41:03.349Z,101.2
2019-05-18T02:42:03.058Z,100.3
2019-05-18T02:43:02.920Z,101
2019-05-18T02:44:03.158Z,102.2
2019-05-18T02:45:02.687Z,102.6
2019-05-18T02:46:02.857Z,101.9
2019-05-18T02:47:02.942Z,102.4
2019-05-18T02:48:02.893Z,102.4
2019-05-18T02:49:02.966Z,102.2
2019-05-18T02:50:02.725Z,101.7
2019-05-18T02:51:03.156Z,101.2
2019-05-18T02:52:02.929Z,100.1
2019-05-18T02:53:02.992Z,101
2019-05-18T02:54:02.585Z,101
2019-05-18T02:55:02.946Z,101.2
2019-05-18T02:56:02.754Z,100.3
2019-05-18T02:57:03.276Z,100.8
2019-05-18T02:58:02.648Z,102.9
2019-05-18T02:59:02.959Z,101
2019-05-18T03:00:03.437Z,99.4
2019-05-18T03:01:02.919Z,99.8
2019-05-18T03:02:02.733Z,98.9
2019-05-18T03:03:02.779Z,99.1
2019-05-18T03:04:03.107Z,98.7
2019-05-18T03:05:02.739Z,98.9
2019-05-18T03:06:03.365Z,97.7
2019-05-18T03:07:02.665Z,96.6
2019-05-18T03:08:03.329Z,97.3
2019-05-18T03:09:03.277Z,97.3
2019-05-18T03:10:03.202Z,97
2019-05-18T03:11:03.424Z,98.2
2019-05-18T03:12:02.945Z,98.4
2019-05-18T03:13:02.479Z,97.7
2019-05-18T03:14:03.154Z,96.1
2019-05-18T03:15:02.764Z,94.9
2019-05-18T03:16:02.923Z,95.2
2019-05-18T03:17:03.273Z,94
2019-05-18T03:18:02.656Z,94.9
2019-05-18T03:19:09.628Z,94.9
2019-05-18T03:20:02.905Z,94
2019-05-18T03:21:03.134Z,93.3
2019-05-18T03:22:02.877Z,92.1
2019-05-18T03:23:03.128Z,93.3
2019-05-18T03:24:02.683Z,92.6
2019-05-18T03:25:02.998Z,93.1
2019-05-18T03:26:03.410Z,94.5
2019-05-18T03:27:03.169Z,95.2
2019-05-18T03:28:03.303Z,93.5
2019-05-18T03:29:03.263Z,92.1
2019-05-18T03:30:03.046Z,92.4
2019-05-18T03:31:03.106Z,93.3
2019-05-18T03:32:02.937Z,91.7
2019-05-18T03:33:03.437Z,92.1
2019-05-18T03:34:02.720Z,92.1
2019-05-18T03:35:03.091Z,91.9
2019-05-18T03:36:03.541Z,91.2
2019-05-18T03:37:02.847Z,89.6
2019-05-18T03:38:03.471Z,89.3
2019-05-18T03:39:02.741Z,88.4
2019-05-18T03:40:03.477Z,87.9
2019-05-18T03:41:02.829Z,87
2019-05-18T03:42:03.393Z,87.7
2019-05-18T03:43:02.691Z,87.5
2019-05-18T03:44:03.296Z,87.7
2019-05-18T03:45:02.520Z,87.5
2019-05-18T03:46:03.190Z,86.8
2019-05-18T03:47:03.483Z,87.9
2019-05-18T03:48:02.903Z,87
2019-05-18T03:49:03.315Z,87.7
2019-05-18T03:50:03.314Z,88.4
2019-05-18T03:51:03.207Z,87.7
2019-05-18T03:52:02.996Z,88.2
2019-05-18T03:53:03.364Z,87.5
2019-05-18T03:54:02.903Z,87.9
2019-05-18T03:55:03.479Z,89.1
2019-05-18T03:56:02.606Z,89.8
2019-05-18T03:57:03.470Z,88.9
2019-05-18T03:58:03.160Z,88.6
2019-05-18T03:59:03.353Z,89.1
2019-05-18T04:00:03.063Z,89.1
2019-05-18T04:01:02.692Z,88.9
2019-05-18T04:02:02.450Z,90
2019-05-18T04:03:03.229Z,90
2019-05-18T04:04:02.338Z,90.5
2019-05-18T04:05:03.440Z,89.8
2019-05-18T04:06:02.863Z,90
2019-05-18T04:07:03.316Z,90.5
2019-05-18T04:08:03.545Z,89.6
2019-05-18T04:09:02.890Z,88.6
2019-05-18T04:10:03.535Z,87.9
2019-05-18T04:11:02.896Z,87.5
2019-05-18T04:12:02.332Z,86.3
2019-05-18T04:13:03.435Z,87
2019-05-18T04:14:09.196Z,87.2
2019-05-18T04:15:03.488Z,88.4
2019-05-18T04:16:02.945Z,88.6
2019-05-18T04:17:03.401Z,88.6
2019-05-18T04:18:02.849Z,88.2
2019-05-18T04:19:03.228Z,88.6
2019-05-18T04:20:03.458Z,90.3
2019-05-18T04:21:02.794Z,91.2
2019-05-18T04:22:02.531Z,91.2
2019-05-18T04:23:03.018Z,91.9
2019-05-18T04:24:02.727Z,91.7
2019-05-18T04:25:02.996Z,92.6
2019-05-18T04:26:02.772Z,90.3
2019-05-18T04:27:03.310Z,90.3
2019-05-18T04:28:03.131Z,91.7
2019-05-18T04:29:03.412Z,93.3
2019-05-18T04:30:03.090Z,93.3
2019-05-18T04:31:03.282Z,93.8
2019-05-18T04:32:02.735Z,94.9
2019-05-18T04:33:02.974Z,95.6
2019-05-18T04:34:02.991Z,95.2
2019-05-18T04:35:03.598Z,95.6
2019-05-18T04:36:02.930Z,97
2019-05-18T04:37:03.153Z,97
2019-05-18T04:38:02.972Z,96.1
2019-05-18T04:39:03.324Z,96.1
2019-05-18T04:40:02.620Z,97.3
2019-05-18T04:41:03.113Z,98.4
2019-05-18T04:42:02.862Z,98.2
2019-05-18T04:43:03.112Z,98.4
2019-05-18T04:44:02.652Z,97
2019-05-18T04:45:03.133Z,96.8
2019-05-18T04:46:03.272Z,96.3
2019-05-18T04:47:02.364Z,95.6
2019-05-18T04:48:03.137Z,95.6
2019-05-18T04:49:03.174Z,95.2
2019-05-18T04:50:06.702Z,94.9
2019-05-18T04:51:02.561Z,96.3
2019-05-18T04:52:02.997Z,94.9
2019-05-18T04:53:02.985Z,94.5
2019-05-18T04:54:03.426Z,95.6
2019-05-18T04:55:03.561Z,95.2
2019-05-18T04:56:02.616Z,94.9
2019-05-18T04:57:03.056Z,95.4
2019-05-18T04:58:02.657Z,94
2019-05-18T04:59:02.806Z,94.9
2019-05-18T05:00:03.425Z,94.5
2019-05-18T05:01:03.022Z,94
2019-05-18T05:02:02.715Z,93.3
2019-05-18T05:03:03.261Z,93.5
2019-05-18T05:04:02.735Z,93.8
2019-05-18T05:05:03.234Z,93.1
2019-05-18T05:06:03.090Z,93.8
2019-05-18T05:07:02.562Z,93.8
2019-05-18T05:08:02.908Z,94.5
2019-05-18T05:09:02.627Z,94.9
2019-05-18T05:10:05.080Z,94.5
2019-05-18T05:11:02.392Z,94.7
2019-05-18T05:12:03.055Z,96.1
2019-05-18T05:13:02.750Z,95.6
2019-05-18T05:14:03.184Z,96.1
2019-05-18T05:15:02.664Z,95.6
2019-05-18T05:16:03.164Z,96.1
2019-05-18T05:17:02.560Z,97.3
2019-05-18T05:18:03.245Z,98.2
2019-05-18T05:19:02.660Z,98.4
2019-05-18T05:20:03.179Z,99.1
2019-05-18T05:21:03.412Z,97.7
2019-05-18T05:22:02.659Z,97
2019-05-18T05:23:02.904Z,97.3
2019-05-18T05:24:02.748Z,98.4
2019-05-18T05:25:03.178Z,96.8
2019-05-18T05:26:03.306Z,96.8
2019-05-18T05:27:02.562Z,96.6
2019-05-18T05:28:02.913Z,95.6
2019-05-18T05:29:02.644Z,95.4
2019-05-18T05:30:03.016Z,93.5
2019-05-18T05:31:02.534Z,93.8
2019-05-18T05:32:03.206Z,93.5
2019-05-18T05:33:03.566Z,93.1
2019-05-18T05:34:03.082Z,92.6
2019-05-18T05:35:03.391Z,93.5
2019-05-18T05:36:03.177Z,93.3
2019-05-18T05:37:02.774Z,94.7
2019-05-18T05:38:03.016Z,94.7
2019-05-18T05:39:02.808Z,96.1
2019-05-18T05:40:02.760Z,95.9
2019-05-18T05:41:03.384Z,94.9
2019-05-18T05:42:02.579Z,94.9
2019-05-18T05:43:03.128Z,95.6
2019-05-18T05:44:02.531Z,96.6
2019-05-18T05:45:02.821Z,96.1
2019-05-18T05:46:03.269Z,96.1
2019-05-18T05:47:02.727Z,95.6
2019-05-18T05:48:03.291Z,95.6
2019-05-18T05:49:02.707Z,96.1
2019-05-18T05:50:03.354Z,96.6
2019-05-18T05:51:03.010Z,95.4
2019-05-18T05:52:03.149Z,96.1
2019-05-18T05:53:02.709Z,96.6
2019-05-18T05:54:03.271Z,95.9
2019-05-18T05:55:02.910Z,95.9
2019-05-18T05:56:03.016Z,97.3
2019-05-18T05:57:03.561Z,97.3
2019-05-18T05:58:02.563Z,96.1
2019-05-18T05:59:02.894Z,95.2
2019-05-18T06:00:02.557Z,95.9
2019-05-18T06:01:02.580Z,96.6
2019-05-18T06:02:03.418Z,97
2019-05-18T06:03:03.398Z,96.6
2019-05-18T06:04:03.430Z,96.1
2019-05-18T06:05:03.619Z,96.1
2019-05-18T06:06:03.209Z,95.4
2019-05-18T06:07:03.299Z,96.3
2019-05-18T06:08:02.877Z,96.8
2019-05-18T06:09:03.022Z,97.3
2019-05-18T06:10:03.394Z,98.2
2019-05-18T06:11:02.722Z,98
2019-05-18T06:12:02.886Z,97.5
2019-05-18T06:13:02.452Z,97.3
2019-05-18T06:14:02.832Z,97
2019-05-18T06:15:02.826Z,97.3
2019-05-18T06:16:02.650Z,97.7
2019-05-18T06:17:03.732Z,96.8
2019-05-18T06:18:02.918Z,96.3
2019-05-18T06:19:02.511Z,96.3
2019-05-18T06:20:03.349Z,95.2
2019-05-18T06:21:03.458Z,95.9
2019-05-18T06:22:02.773Z,95.6
2019-05-18T06:23:03.499Z,95.2
2019-05-18T06:24:02.610Z,94
2019-05-18T06:25:05.836Z,95.4
2019-05-18T06:26:03.655Z,95.9
2019-05-18T06:27:03.448Z,95.9
2019-05-18T06:28:02.737Z,95.6
2019-05-18T06:29:03.253Z,95.2
2019-05-18T06:30:03.434Z,96.1
2019-05-18T06:31:02.726Z,95.9
2019-05-18T06:32:03.254Z,95.9
2019-05-18T06:33:02.724Z,95.9
2019-05-18T06:34:03.043Z,95.9
2019-05-18T06:35:03.250Z,94.9
2019-05-18T06:36:03.247Z,94
2019-05-18T06:37:03.336Z,92.8
2019-05-18T06:38:02.867Z,93.1
2019-05-18T06:39:02.726Z,91.4
2019-05-18T06:40:03.163Z,91.4
2019-05-18T06:41:03.420Z,92.1
2019-05-18T06:42:03.009Z,92.1
2019-05-18T06:43:03.564Z,91.7
2019-05-18T06:44:02.999Z,91.9
2019-05-18T06:45:03.224Z,93.1
2019-05-18T06:46:02.859Z,93.1
2019-05-18T06:47:03.481Z,94
2019-05-18T06:48:03.375Z,94.2
2019-05-18T06:49:02.950Z,95.2
2019-05-18T06:50:02.615Z,94.5
2019-05-18T06:51:08.063Z,94.9
2019-05-18T06:52:02.789Z,94.5
2019-05-18T06:53:03.094Z,94.9
2019-05-18T06:54:03.239Z,94.7
2019-05-18T06:55:02.834Z,94.2
2019-05-18T06:56:03.394Z,92.8
2019-05-18T06:57:02.498Z,93.5
2019-05-18T06:58:02.959Z,95.2
2019-05-18T06:59:03.527Z,96.1
2019-05-18T07:00:03.113Z,96.6
2019-05-18T07:01:02.744Z,96.3
2019-05-18T07:02:02.907Z,97
2019-05-18T07:03:02.688Z,97.5
2019-05-18T07:04:02.961Z,98.4
2019-05-18T07:05:03.519Z,99.1
2019-05-18T07:06:02.738Z,98.4
2019-05-18T07:07:03.249Z,98
2019-05-18T07:08:02.519Z,96.6
2019-05-18T07:09:03.191Z,96.6
2019-05-18T07:10:03.325Z,95.2
2019-05-18T07:11:02.862Z,96.3
2019-05-18T07:12:03.471Z,96.1
2019-05-18T07:13:03.058Z,97
2019-05-18T07:14:03.210Z,96.6
2019-05-18T07:15:03.102Z,96.8
2019-05-18T07:16:02.703Z,96.3
2019-05-18T07:17:02.998Z,95.9
2019-05-18T07:18:03.177Z,95.6
2019-05-18T07:19:02.787Z,96.1
2019-05-18T07:20:03.165Z,94.7
2019-05-18T07:21:03.401Z,94.5
2019-05-18T07:22:02.802Z,94.9
2019-05-18T07:23:02.800Z,94
2019-05-18T07:24:03.153Z,95.9
2019-05-18T07:25:03.553Z,94.9
2019-05-18T07:26:02.631Z,95.2
2019-05-18T07:27:03.601Z,96.3
2019-05-18T07:28:02.848Z,97.3
2019-05-18T07:29:06.114Z,97.3
2019-05-18T07:30:02.982Z,97.5
2019-05-18T07:31:02.597Z,98.2
2019-05-18T07:32:03.146Z,98.2
2019-05-18T07:33:03.231Z,98.2
2019-05-18T07:34:02.518Z,97.3
2019-05-18T07:35:02.687Z,97.3
2019-05-18T07:36:03.042Z,98
2019-05-18T07:37:03.261Z,98.7
2019-05-18T07:38:03.313Z,97.7
2019-05-18T07:39:02.654Z,98.9
2019-05-18T07:40:03.355Z,98.9
2019-05-18T07:41:02.641Z,97.5
2019-05-18T07:42:03.153Z,97.5
2019-05-18T07:43:02.607Z,96.6
2019-05-18T07:44:03.604Z,96.3
2019-05-18T07:45:02.858Z,96.3
2019-05-18T07:46:03.159Z,97.7
2019-05-18T07:47:03.437Z,97.3
2019-05-18T07:48:02.968Z,97.3
2019-05-18T07:49:03.828Z,96.3
2019-05-18T07:50:02.932Z,97
2019-05-18T07:51:03.032Z,96.8
2019-05-18T07:52:02.765Z,97.5
2019-05-18T07:53:02.576Z,97.5
2019-05-18T07:54:02.841Z,96.1
2019-05-18T07:55:03.388Z,95.9
2019-05-18T07:56:02.751Z,96.3
2019-05-18T07:57:03.574Z,94.9
2019-05-18T07:58:02.892Z,93.5
2019-05-18T07:59:03.291Z,93.5
2019-05-18T08:00:03.666Z,92.8
2019-05-18T08:01:02.821Z,94.7
2019-05-18T08:02:03.452Z,94.9
2019-05-18T08:03:03.254Z,95.2
2019-05-18T08:04:02.481Z,94.7
2019-05-18T08:05:03.184Z,95.2
2019-05-18T08:06:03.480Z,95.4
2019-05-18T08:07:04.078Z,95.9
2019-05-18T08:08:03.563Z,98
2019-05-18T08:09:03.216Z,98.2
2019-05-18T08:10:03.714Z,98.4
2019-05-18T08:11:02.794Z,97.3
2019-05-18T08:12:03.424Z,97.3
2019-05-18T08:13:03.331Z,97.7
2019-05-18T08:14:03.385Z,98.9
2019-05-18T08:15:03.214Z,99.1
2019-05-18T08:16:03.380Z,97.7
2019-05-18T08:17:02.539Z,97.7
2019-05-18T08:18:03.537Z,97.7
2019-05-18T08:19:02.927Z,97.5
2019-05-18T08:20:03.421Z,98.7
2019-05-18T08:21:03.261Z,99.4
2019-05-18T08:22:02.585Z,99.6
2019-05-18T08:23:03.042Z,101
2019-05-18T08:24:03.783Z,100.1
2019-05-18T08:25:03.183Z,100.1
2019-05-18T08:26:03.583Z,101
2019-05-18T08:27:02.872Z,100.5
2019-05-18T08:28:03.489Z,100.3
2019-05-18T08:29:03.049Z,99.1
2019-05-18T08:30:02.585Z,98.2
2019-05-18T08:31:02.693Z,98.7
2019-05-18T08:32:05.334Z,99.8
2019-05-18T08:33:02.705Z,98.9
2019-05-18T08:34:02.489Z,99.4
2019-05-18T08:35:03.656Z,99.8
2019-05-18T08:36:03.028Z,99.6
2019-05-18T08:37:03.191Z,99.1
2019-05-18T08:38:02.666Z,100.3
2019-05-18T08:39:03.317Z,99.1
2019-05-18T08:40:03.614Z,98.2
2019-05-18T08:41:03.027Z,99.6
2019-05-18T08:42:03.099Z,99.8
2019-05-18T08:43:03.584Z,99.8
2019-05-18T08:44:03.009Z,100.5
2019-05-18T08:45:03.311Z,101
2019-05-18T08:46:03.169Z,99.6
2019-05-18T08:47:03.418Z,98.9
2019-05-18T08:48:02.868Z,98
2019-05-18T08:49:02.595Z,98.4
2019-05-18T08:50:03.060Z,97.5
2019-05-18T08:51:03.455Z,96.8
2019-05-18T08:52:09.058Z,97.3
2019-05-18T08:53:02.579Z,97.5
2019-05-18T08:54:02.606Z,98.4
2019-05-18T08:55:03.312Z,98.4
2019-05-18T08:56:02.796Z,97.3
2019-05-18T08:57:03.404Z,98
2019-05-18T08:58:03.011Z,98.7
2019-05-18T08:59:03.414Z,98.7
2019-05-18T09:00:03.220Z,99.8
2019-05-18T09:01:03.367Z,97.5
2019-05-18T09:02:02.826Z,96.3
2019-05-18T09:03:03.415Z,95.2
2019-05-18T09:04:02.988Z,95.2
2019-05-18T09:05:05.465Z,95.4
2019-05-18T09:06:02.960Z,95.2
2019-05-18T09:07:04.029Z,95.2
2019-05-18T09:08:02.912Z,94.2
2019-05-18T09:09:03.412Z,95.2
2019-05-18T09:10:02.717Z,95.4
2019-05-18T09:11:03.203Z,94.7
2019-05-18T09:12:03.535Z,94.7
2019-05-18T09:13:02.937Z,93.8
2019-05-18T09:14:03.540Z,93.1
2019-05-18T09:15:03.033Z,92.6
2019-05-18T09:16:03.345Z,94.2
2019-05-18T09:17:02.890Z,94.7
2019-05-18T09:18:05.364Z,94.2
2019-05-18T09:19:02.883Z,94.2
2019-05-18T09:20:03.474Z,93.8
2019-05-18T09:21:02.646Z,94.2
2019-05-18T09:22:03.282Z,93.8
2019-05-18T09:23:02.607Z,93.3
2019-05-18T09:24:02.933Z,93.1
2019-05-18T09:25:03.047Z,93.5
2019-05-18T09:26:02.677Z,94
2019-05-18T09:27:02.835Z,94
2019-05-18T09:28:03.433Z,95.4
2019-05-18T09:29:03.045Z,96.6
2019-05-18T09:30:03.389Z,96.8
2019-05-18T09:31:03.775Z,97
2019-05-18T09:32:02.681Z,96.6
2019-05-18T09:33:03.206Z,96.8
2019-05-18T09:34:02.910Z,97.7
2019-05-18T09:35:02.793Z,98.7
2019-05-18T09:36:03.009Z,98.9
2019-05-18T09:37:03.512Z,98.4
2019-05-18T09:38:02.856Z,98.7
2019-05-18T09:39:02.914Z,100.3
2019-05-18T09:40:03.367Z,100.5
2019-05-18T09:41:02.888Z,100.3
2019-05-18T09:42:03.196Z,99.8
2019-05-18T09:43:02.459Z,100.3
2019-05-18T09:44:02.981Z,99.6
2019-05-18T09:45:02.731Z,98.9
2019-05-18T09:46:03.076Z,99.4
2019-05-18T09:47:02.661Z,99.8
2019-05-18T09:48:03.270Z,101.2
2019-05-18T09:49:02.630Z,100.3
2019-05-18T09:50:02.817Z,102.4
2019-05-18T09:51:02.921Z,102.6
2019-05-18T09:52:04.091Z,101.2
2019-05-18T09:53:05.561Z,100.3
2019-05-18T09:54:02.936Z,100.1
2019-05-18T09:55:02.631Z,100.1
2019-05-18T09:56:03.409Z,101.2
2019-05-18T09:57:02.557Z,102.6
2019-05-18T09:58:02.784Z,103.3
2019-05-18T09:59:03.232Z,104
2019-05-18T10:00:03.074Z,102.2
2019-05-18T10:01:03.078Z,102.2
2019-05-18T10:02:03.018Z,102.6
2019-05-18T10:03:03.320Z,102.6
2019-05-18T10:04:02.781Z,102.6
2019-05-18T10:05:03.490Z,101.2
2019-05-18T10:06:02.857Z,101.2
2019-05-18T10:07:03.250Z,101.5
2019-05-18T10:08:02.812Z,101.7
2019-05-18T10:09:03.373Z,101.5
2019-05-18T10:10:03.468Z,100.8
2019-05-18T10:11:02.881Z,100.8
2019-05-18T10:12:03.496Z,100.5
2019-05-18T10:13:03.039Z,101.2
2019-05-18T10:14:03.436Z,103.3
2019-05-18T10:15:03.504Z,104
2019-05-18T10:16:03.249Z,104
2019-05-18T10:17:02.693Z,104.5
2019-05-18T10:18:02.741Z,104.7
2019-05-18T10:19:03.059Z,105.7
2019-05-18T10:20:02.789Z,105.7
2019-05-18T10:21:04.164Z,104
2019-05-18T10:22:02.496Z,106.1
2019-05-18T10:23:14.232Z,105.7
2019-05-18T10:25:03.640Z,103.8
2019-05-18T10:26:02.439Z,104
2019-05-18T10:27:03.451Z,104.3
2019-05-18T10:28:02.572Z,102.4
2019-05-18T10:29:03.167Z,102.2
2019-05-18T10:30:03.303Z,103.8
2019-05-18T10:31:02.966Z,102.4
2019-05-18T10:32:03.262Z,101.7
2019-05-18T10:33:03.942Z,101.7
2019-05-18T10:34:02.964Z,101.5
2019-05-18T10:35:03.597Z,101.5
2019-05-18T10:36:02.761Z,101.2
2019-05-18T10:37:03.435Z,101.5
2019-05-18T10:38:02.475Z,100.5
2019-05-18T10:39:03.647Z,100.3
2019-05-18T10:40:03.087Z,100.3
2019-05-18T10:41:04.501Z,99.8
2019-05-18T10:42:02.884Z,100.3
2019-05-18T10:43:03.135Z,100.5
2019-05-18T10:44:02.843Z,100.8
2019-05-18T10:45:03.112Z,100.3
2019-05-18T10:46:02.488Z,100.1
2019-05-18T10:47:02.810Z,100.1
2019-05-18T10:48:02.959Z,98.7
2019-05-18T10:49:03.325Z,98.7
2019-05-18T10:50:02.888Z,97.7
2019-05-18T10:51:05.989Z,97.5
2019-05-18T10:52:03.538Z,98
2019-05-18T10:53:02.713Z,98.9
2019-05-18T10:54:03.255Z,98.9
2019-05-18T10:55:02.832Z,100.1
2019-05-18T10:56:02.917Z,100.3
2019-05-18T10:57:03.404Z,98.9
2019-05-18T10:58:02.306Z,98.4
2019-05-18T10:59:02.537Z,98
2019-05-18T11:00:03.145Z,97.7
2019-05-18T11:01:03.391Z,98
2019-05-18T11:02:03.310Z,98.2
2019-05-18T11:03:03.355Z,98.7
2019-05-18T11:04:03.335Z,98.7
2019-05-18T11:05:01.908Z,98.4
2019-05-18T11:06:03.487Z,97.5
2019-05-18T11:07:03.383Z,98
2019-05-18T11:08:03.174Z,97.3
2019-05-18T11:09:03.741Z,96.8
2019-05-18T11:10:03.249Z,97
2019-05-18T11:11:03.148Z,96.3
2019-05-18T11:12:02.722Z,97
2019-05-18T11:13:03.581Z,95.9
2019-05-18T11:14:02.644Z,93.3
2019-05-18T11:15:02.966Z,92.8
2019-05-18T11:16:03.329Z,91.7
2019-05-18T11:17:02.748Z,92.1
2019-05-18T11:18:03.214Z,93.1
2019-05-18T11:19:02.877Z,91.4
2019-05-18T11:20:03.561Z,91.2
2019-05-18T11:21:03.473Z,93.1
2019-05-18T11:22:03.499Z,92.1
2019-05-18T11:23:02.586Z,92.1
2019-05-18T11:24:03.434Z,92.1
2019-05-18T11:25:03.180Z,92.4
2019-05-18T11:26:03.432Z,92.1
2019-05-18T11:27:03.268Z,91.9
2019-05-18T11:28:02.840Z,92.1
2019-05-18T11:29:02.880Z,91.2
2019-05-18T11:30:03.362Z,89.6
2019-05-18T11:31:03.131Z,89.6
2019-05-18T11:32:03.330Z,90.3
2019-05-18T11:33:02.724Z,90.7
2019-05-18T11:34:02.911Z,90.3
2019-05-18T11:35:02.873Z,90.3
2019-05-18T11:36:03.493Z,90.7
2019-05-18T11:37:03.586Z,90.7
2019-05-18T11:38:02.932Z,91.9
2019-05-18T11:39:03.404Z,91.7
2019-05-18T11:40:02.998Z,92.6
2019-05-18T11:41:03.163Z,93.1
2019-05-18T11:42:02.940Z,93.3
2019-05-18T11:43:03.275Z,93.3
2019-05-18T11:44:02.553Z,93.3
2019-05-18T11:45:03.375Z,93.8
2019-05-18T11:46:03.272Z,94
2019-05-18T11:47:03.148Z,93.8
2019-05-18T11:48:03.100Z,94.2
2019-05-18T11:49:03.121Z,94.2
2019-05-18T11:50:02.814Z,93.3
2019-05-18T11:51:02.588Z,93.1
2019-05-18T11:52:03.625Z,93.1
2019-05-18T11:53:02.860Z,92.8
2019-05-18T11:54:03.308Z,93.3
2019-05-18T11:55:02.970Z,92.4
2019-05-18T11:56:03.214Z,92.1
2019-05-18T11:57:02.559Z,92.4
2019-05-18T11:58:03.150Z,93.1
2019-05-18T11:59:02.841Z,93.3
2019-05-18T12:00:02.629Z,92.8
2019-05-18T12:01:02.654Z,93.1
2019-05-18T12:02:03.059Z,92.4
2019-05-18T12:03:03.246Z,91.7
2019-05-18T12:04:02.718Z,91.7
2019-05-18T12:05:03.539Z,91.4
2019-05-18T12:06:02.832Z,92.1
2019-05-18T12:07:03.301Z,92.1
2019-05-18T12:08:03.518Z,92.8
2019-05-18T12:09:02.760Z,93.5
2019-05-18T12:10:03.259Z,93.3
2019-05-18T12:11:02.664Z,94
2019-05-18T12:12:03.395Z,94
2019-05-18T12:13:02.785Z,95.4
2019-05-18T12:14:03.442Z,95.9
2019-05-18T12:15:03.713Z,96.3
2019-05-18T12:16:03.167Z,96.3
2019-05-18T12:17:02.339Z,96.6
2019-05-18T12:18:02.683Z,96.1
2019-05-18T12:19:03.111Z,96.1
2019-05-18T12:20:03.043Z,95.2
2019-05-18T12:21:03.208Z,94.2
2019-05-18T12:22:03.076Z,93.3
2019-05-18T12:23:02.836Z,93.3
2019-05-18T12:24:16.367Z,93.1
2019-05-18T12:26:03.508Z,92.8
2019-05-18T12:27:03.038Z,92.8
2019-05-18T12:28:03.366Z,93.5
2019-05-18T12:29:02.705Z,94
2019-05-18T12:30:03.304Z,94.5
2019-05-18T12:31:02.638Z,94.5
2019-05-18T12:32:03.178Z,94.5
2019-05-18T12:33:02.466Z,94.7
2019-05-18T12:34:03.188Z,94.5
2019-05-18T12:35:03.008Z,94.2
2019-05-18T12:36:02.606Z,94.5
2019-05-18T12:37:02.943Z,94
2019-05-18T12:38:03.354Z,94.7
2019-05-18T12:39:03.194Z,94.9
2019-05-18T12:40:03.476Z,94.7
2019-05-18T12:41:03.626Z,94.9
2019-05-18T12:42:02.688Z,94.7
2019-05-18T12:43:03.080Z,94.7
2019-05-18T12:44:03.091Z,95.2
2019-05-18T12:45:02.642Z,94.7
2019-05-18T12:46:02.677Z,95.4
2019-05-18T12:47:03.162Z,95.6
2019-05-18T12:48:02.564Z,96.1
2019-05-18T12:49:03.134Z,96.3
2019-05-18T12:50:03.455Z,97.7
2019-05-18T12:51:02.760Z,98
2019-05-18T12:52:03.501Z,99.1
2019-05-18T12:53:02.875Z,98
2019-05-18T12:54:02.989Z,98.9
2019-05-18T12:55:03.398Z,98.4
2019-05-18T12:56:02.818Z,98.4
2019-05-18T12:57:03.198Z,98.4
2019-05-18T12:58:02.832Z,97
2019-05-18T12:59:03.142Z,97.3
2019-05-18T13:00:02.684Z,98.2
2019-05-18T13:01:02.718Z,1.9
2019-05-18T13:02:02.845Z,1.9
2019-05-18T13:03:03.448Z,1.4
2019-05-18T13:04:02.671Z,1.4
2019-05-18T13:05:03.376Z,1.4
2019-05-18T13:06:02.563Z,1.9
2019-05-18T13:07:02.710Z,98
2019-05-18T13:08:02.860Z,98
2019-05-18T13:09:03.364Z,99.4
2019-05-18T13:10:03.484Z,101.5
2019-05-18T13:11:02.743Z,100.3
2019-05-18T13:12:03.173Z,102.2
2019-05-18T13:13:03.424Z,100.5
2019-05-18T13:14:03.182Z,99.8
2019-05-18T13:15:03.510Z,99.8
2019-05-18T13:16:02.818Z,100.1
2019-05-18T13:17:03.227Z,99.6
2019-05-18T13:18:02.633Z,99.6
2019-05-18T13:19:03.142Z,99.1
2019-05-18T13:20:03.540Z,97.7
2019-05-18T13:21:02.826Z,97.3
2019-05-18T13:22:02.564Z,96.1
2019-05-18T13:23:03.239Z,94.7